createdAt,value
2022-09-03T00:00:44.635Z,5.00
2022-09-03T00:03:19.337Z,6.37
2022-09-03T00:05:53.533Z,5.80
2022-09-03T00:08:27.167Z,5.63
2022-09-03T00:11:00.918Z,5.80
2022-09-03T00:13:34.863Z,5.57
2022-09-03T00:16:10.449Z,6.43
2022-09-03T00:18:45.278Z,5.57
2022-09-03T00:21:18.913Z,6.33
2022-09-03T00:23:51.806Z,6.30
2022-09-03T00:26:27.241Z,6.60
2022-09-03T00:29:03.500Z,7.40
2022-09-03T00:31:38.636Z,6.77
2022-09-03T00:34:13.592Z,7.03
2022-09-03T00:36:46.949Z,6.83
2022-09-03T00:39:19.140Z,6.50
2022-09-03T00:42:04.047Z,6.30
2022-09-03T00:44:46.968Z,6.03
2022-09-03T00:47:21.262Z,6.57
2022-09-03T00:49:59.757Z,5.80
2022-09-03T00:52:37.806Z,6.10
2022-09-03T00:55:12.384Z,6.10
2022-09-03T00:57:49.597Z,6.00
2022-09-03T01:00:22.211Z,7.27
2022-09-03T01:03:01.622Z,6.33
2022-09-03T01:05:46.627Z,6.20
2022-09-03T01:08:25.014Z,6.13
2022-09-03T01:10:58.920Z,7.00
2022-09-03T01:13:33.240Z,7.67
2022-09-03T01:16:08.762Z,6.80
2022-09-03T01:18:43.106Z,8.13
2022-09-03T01:24:41.212Z,7.20
2022-09-03T01:27:22.233Z,7.33
2022-09-03T01:29:55.851Z,7.27
2022-09-03T01:32:30.558Z,7.13
2022-09-03T01:35:04.315Z,6.80
2022-09-03T01:37:40.525Z,7.50
2022-09-03T01:40:15.826Z,7.43
2022-09-03T01:42:51.771Z,7.40
2022-09-03T01:45:40.495Z,7.33
2022-09-03T01:48:23.987Z,7.40
2022-09-03T01:50:59.925Z,7.13
2022-09-03T01:53:39.199Z,7.40
2022-09-03T01:56:22.066Z,7.23
2022-09-03T01:58:57.053Z,7.23
2022-09-03T02:01:31.836Z,7.67
2022-09-03T02:04:03.275Z,7.53
2022-09-03T02:06:33.957Z,7.03
2022-09-03T02:09:04.573Z,6.13
2022-09-03T02:11:37.371Z,5.80
2022-09-03T02:14:08.504Z,6.20
2022-09-03T02:16:39.505Z,6.30
2022-09-03T02:19:13.010Z,6.10
2022-09-03T02:21:46.645Z,4.80
2022-09-03T02:24:17.479Z,4.47
2022-09-03T02:26:48.230Z,4.53
2022-09-03T02:29:20.955Z,4.10
2022-09-03T02:31:51.597Z,4.83
2022-09-03T02:34:22.170Z,4.67
2022-09-03T02:36:52.781Z,4.33
2022-09-03T02:39:23.384Z,4.37
2022-09-03T02:41:56.301Z,3.97
2022-09-03T02:44:31.763Z,3.97
2022-09-03T02:47:03.982Z,3.67
2022-09-03T02:49:35.545Z,4.57
2022-09-03T02:52:09.704Z,4.93
2022-09-03T02:54:40.731Z,5.47
2022-09-03T02:57:12.993Z,4.87
2022-09-03T02:59:44.677Z,5.67
2022-09-03T03:02:15.901Z,5.43
2022-09-03T03:04:46.647Z,4.80
2022-09-03T03:07:17.276Z,5.30
2022-09-03T03:09:47.796Z,5.53
2022-09-03T03:12:19.381Z,5.90
2022-09-03T03:14:50.006Z,6.77
2022-09-03T03:17:20.625Z,6.70
2022-09-03T03:19:51.281Z,5.90
2022-09-03T03:22:21.899Z,5.87
2022-09-03T03:24:52.999Z,5.53
2022-09-03T03:27:24.132Z,6.43
2022-09-03T03:29:55.097Z,7.07
2022-09-03T03:32:25.693Z,5.90
2022-09-03T03:34:56.247Z,5.93
2022-09-03T03:37:26.889Z,6.80
2022-09-03T03:39:57.495Z,6.57
2022-09-03T03:42:28.165Z,6.10
2022-09-03T03:44:58.752Z,6.10
2022-09-03T03:47:29.439Z,6.20
2022-09-03T03:50:00.418Z,5.67
2022-09-03T03:52:31.400Z,5.33
2022-09-03T03:55:02.087Z,6.10
2022-09-03T03:57:33.969Z,6.17
2022-09-03T04:00:05.579Z,6.70
2022-09-03T04:02:39.161Z,6.17
2022-09-03T04:05:11.128Z,5.40
2022-09-03T04:07:42.204Z,5.77
2022-09-03T04:10:13.323Z,6.37
2022-09-03T04:12:43.911Z,6.50
2022-09-03T04:15:14.880Z,6.47
2022-09-03T04:17:45.518Z,6.53
2022-09-03T04:20:16.541Z,7.37
2022-09-03T04:22:51.360Z,7.50
2022-09-03T04:25:19.529Z,7.17
2022-09-03T04:27:52.816Z,7.33
2022-09-03T04:30:23.833Z,7.00
2022-09-03T04:32:55.195Z,7.63
2022-09-03T04:35:30.041Z,7.33
2022-09-03T04:38:01.746Z,7.97
2022-09-03T04:40:32.403Z,7.53
2022-09-03T04:43:03.078Z,7.33
2022-09-03T04:45:33.710Z,6.63
2022-09-03T04:48:05.995Z,6.10
2022-09-03T04:50:36.667Z,5.47
2022-09-03T04:53:08.178Z,5.67
2022-09-03T04:55:39.847Z,5.40
2022-09-03T04:58:10.450Z,5.13
2022-09-03T05:00:41.483Z,5.20
2022-09-03T05:03:12.741Z,5.73
2022-09-03T05:05:43.331Z,4.80
2022-09-03T05:08:13.902Z,5.27
2022-09-03T05:10:44.603Z,4.90
2022-09-03T05:13:15.161Z,5.07
2022-09-03T05:15:47.058Z,6.07
2022-09-03T05:18:18.048Z,5.37
2022-09-03T05:20:52.129Z,5.20
2022-09-03T05:23:22.757Z,4.97
2022-09-03T05:25:59.205Z,5.37
2022-09-03T05:28:31.496Z,4.97
2022-09-03T05:31:03.304Z,5.17
2022-09-03T05:33:36.313Z,5.53
2022-09-03T05:36:09.125Z,5.63
2022-09-03T05:38:40.187Z,5.43
2022-09-03T05:41:13.358Z,5.47
2022-09-03T05:43:44.816Z,6.07
2022-09-03T05:46:18.636Z,5.87
2022-09-03T05:48:49.532Z,5.67
2022-09-03T05:51:21.002Z,5.17
2022-09-03T05:53:53.686Z,6.00
2022-09-03T05:59:07.001Z,6.00
2022-09-03T06:01:39.455Z,5.60
2022-09-03T06:04:11.930Z,5.90
2022-09-03T06:06:44.537Z,5.13
2022-09-03T06:09:18.132Z,5.33
2022-09-03T06:11:50.364Z,4.77
2022-09-03T06:14:23.942Z,5.23
2022-09-03T06:16:55.887Z,5.63
2022-09-03T06:19:26.627Z,5.37
2022-09-03T06:21:57.317Z,5.60
2022-09-03T06:24:29.939Z,5.97
2022-09-03T06:27:01.711Z,5.27
2022-09-03T06:29:34.569Z,5.30
2022-09-03T06:32:05.867Z,5.20
2022-09-03T06:34:36.552Z,4.80
2022-09-03T06:37:07.358Z,5.00
2022-09-03T06:39:38.160Z,5.10
2022-09-03T06:42:10.062Z,4.87
2022-09-03T06:44:40.756Z,4.60
2022-09-03T06:47:11.441Z,4.70
2022-09-03T06:49:42.125Z,4.20
2022-09-03T06:52:12.893Z,4.60
2022-09-03T06:54:43.515Z,4.20
2022-09-03T06:57:14.146Z,4.47
2022-09-03T06:59:45.001Z,4.30
2022-09-03T07:02:15.795Z,4.63
2022-09-03T07:04:46.763Z,4.40
2022-09-03T07:07:19.026Z,3.80
2022-09-03T07:09:49.707Z,4.27
2022-09-03T07:12:20.455Z,4.07
2022-09-03T07:14:51.345Z,3.97
2022-09-03T07:17:22.069Z,3.83
2022-09-03T07:19:52.678Z,4.30
2022-09-03T07:22:23.513Z,4.53
2022-09-03T07:24:55.784Z,4.13
2022-09-03T07:27:26.625Z,3.97
2022-09-03T07:29:57.308Z,4.33
2022-09-03T07:32:27.936Z,4.77
2022-09-03T07:34:58.517Z,4.63
2022-09-03T07:37:29.249Z,4.97
2022-09-03T07:39:59.982Z,6.23
2022-09-03T07:42:31.340Z,5.40
2022-09-03T07:45:03.513Z,5.37
2022-09-03T07:47:34.814Z,5.50
2022-09-03T07:50:06.424Z,5.93
2022-09-03T07:52:37.092Z,4.97
2022-09-03T07:55:10.695Z,5.00
2022-09-03T07:57:41.504Z,5.13
2022-09-03T08:00:17.713Z,5.03
2022-09-03T08:02:48.358Z,6.03
2022-09-03T08:05:20.585Z,7.13
2022-09-03T08:07:51.684Z,6.57
2022-09-03T08:10:22.874Z,5.30
2022-09-03T08:12:53.535Z,4.60
2022-09-03T08:15:24.256Z,5.70
2022-09-03T08:17:55.229Z,5.47
2022-09-03T08:20:28.027Z,4.97
2022-09-03T08:25:41.837Z,5.13
2022-09-03T08:28:12.548Z,4.80
2022-09-03T08:30:43.258Z,4.77
2022-09-03T08:33:13.936Z,4.97
2022-09-03T08:35:44.557Z,4.23
2022-09-03T08:38:15.663Z,4.63
2022-09-03T08:40:46.587Z,4.60
2022-09-03T08:43:20.032Z,4.73
2022-09-03T08:45:50.765Z,4.43
2022-09-03T08:48:25.994Z,4.17
2022-09-03T08:51:00.134Z,4.33
2022-09-03T08:56:14.427Z,4.47
2022-09-03T08:58:45.146Z,4.43
2022-09-03T09:01:20.116Z,4.50
2022-09-03T09:03:56.408Z,5.57
2022-09-03T09:06:31.221Z,4.30
2022-09-03T09:09:07.256Z,5.87
2022-09-03T09:11:47.063Z,4.93
2022-09-03T09:14:21.472Z,4.53
2022-09-03T09:16:57.679Z,4.53
2022-09-03T09:19:44.761Z,4.47
2022-09-03T09:22:18.278Z,4.77
2022-09-03T09:24:51.538Z,4.40
2022-09-03T09:27:23.587Z,4.83
2022-09-03T09:29:55.094Z,4.60
2022-09-03T09:32:25.648Z,5.17
2022-09-03T09:34:56.253Z,5.13
2022-09-03T09:37:26.948Z,4.40
2022-09-03T09:40:00.404Z,4.40
2022-09-03T09:42:31.958Z,4.93
2022-09-03T09:45:11.865Z,4.87
2022-09-03T09:47:43.142Z,4.10
2022-09-03T09:50:26.129Z,5.10
2022-09-03T09:53:06.008Z,4.40
2022-09-03T09:55:37.726Z,4.60
2022-09-03T09:58:14.424Z,4.73
2022-09-03T10:00:43.873Z,4.37
2022-09-03T10:03:14.896Z,4.23
2022-09-03T10:05:47.388Z,4.57
2022-09-03T10:08:23.799Z,4.23
2022-09-03T10:10:54.676Z,4.77
2022-09-03T10:13:28.265Z,3.97
2022-09-03T10:16:02.467Z,4.30
2022-09-03T10:18:36.438Z,4.07
2022-09-03T10:21:11.322Z,4.50
2022-09-03T10:23:46.906Z,4.67
2022-09-03T10:26:20.587Z,4.43
2022-09-03T10:31:45.367Z,4.60
2022-09-03T10:34:19.566Z,3.80
2022-09-03T10:36:54.233Z,4.17
2022-09-03T10:39:28.509Z,4.40
2022-09-03T10:42:06.991Z,4.07
2022-09-03T10:47:47.035Z,4.03
2022-09-03T10:50:20.395Z,3.87
2022-09-03T10:53:03.548Z,3.47
2022-09-03T10:55:39.418Z,3.47
2022-09-03T10:58:16.719Z,3.65
2022-09-03T11:00:52.300Z,3.90
2022-09-03T11:03:39.135Z,3.95
2022-09-03T11:06:13.702Z,4.00
2022-09-03T11:08:48.183Z,3.35
2022-09-03T11:11:22.409Z,3.90
2022-09-03T11:13:56.278Z,3.45
2022-09-03T11:16:29.932Z,3.45
2022-09-03T11:19:04.392Z,3.60
2022-09-03T11:21:38.050Z,3.52
2022-09-03T11:24:13.998Z,3.58
2022-09-03T11:26:48.654Z,3.67
2022-09-03T11:29:22.279Z,3.55
2022-09-03T11:34:37.690Z,3.52
2022-09-03T11:37:11.532Z,3.08
2022-09-03T11:39:42.819Z,3.12
2022-09-03T11:42:16.234Z,3.65
2022-09-03T11:44:52.174Z,2.98
2022-09-03T11:47:28.070Z,3.77
2022-09-03T11:50:08.266Z,3.47
2022-09-03T11:52:40.765Z,3.08
2022-09-03T11:55:11.511Z,3.20
2022-09-03T11:57:44.332Z,3.25
2022-09-03T12:00:18.678Z,3.25
2022-09-03T12:02:56.739Z,3.22
2022-09-03T12:05:30.305Z,3.35
2022-09-03T12:11:03.008Z,3.95
2022-09-03T12:13:51.077Z,2.62
2022-09-03T12:16:51.106Z,2.85
2022-09-03T12:19:26.664Z,2.72
2022-09-03T12:21:57.861Z,2.60
2022-09-03T12:24:34.671Z,3.25
2022-09-03T12:27:06.128Z,3.20
2022-09-03T12:29:36.753Z,3.35
2022-09-03T12:32:14.149Z,3.27
2022-09-03T12:34:44.740Z,3.12
2022-09-03T12:40:07.673Z,3.00
2022-09-03T12:42:32.588Z,3.00
2022-09-03T12:45:10.658Z,2.92
2022-09-03T12:47:43.449Z,3.42
2022-09-03T12:50:17.127Z,3.37
2022-09-03T12:52:50.593Z,3.40
2022-09-03T12:55:35.753Z,3.42
2022-09-03T12:58:15.648Z,2.92
2022-09-03T13:00:50.402Z,3.12
2022-09-03T13:03:24.349Z,3.27
2022-09-03T13:05:58.003Z,3.10
2022-09-03T13:08:32.122Z,3.12
2022-09-03T13:11:05.366Z,2.98
2022-09-03T13:13:38.162Z,2.98
2022-09-03T13:16:18.971Z,2.83
2022-09-03T13:18:52.936Z,1.92
2022-09-03T13:21:28.340Z,1.92
2022-09-03T13:24:10.326Z,1.67
2022-09-03T13:26:46.783Z,1.40
2022-09-03T13:29:25.395Z,1.80
2022-09-03T13:32:04.009Z,1.50
2022-09-03T13:34:36.607Z,1.32
2022-09-03T13:37:14.086Z,2.02
2022-09-03T13:39:47.704Z,1.67
2022-09-03T13:42:24.589Z,1.75
2022-09-03T13:44:58.995Z,1.72
2022-09-03T13:47:33.296Z,1.60
2022-09-03T13:50:23.806Z,1.40
2022-09-03T13:52:59.523Z,1.37
2022-09-03T13:58:16.658Z,1.72
2022-09-03T14:00:50.354Z,1.55
2022-09-03T14:03:26.819Z,1.60
2022-09-03T14:06:08.951Z,1.70
2022-09-03T14:08:46.231Z,1.77
2022-09-03T14:11:23.851Z,1.70
2022-09-03T14:14:02.532Z,1.77
2022-09-03T14:16:38.284Z,1.98
2022-09-03T14:19:12.216Z,1.60
2022-09-03T14:21:46.970Z,1.70
2022-09-03T14:24:23.184Z,2.77
2022-09-03T14:26:55.965Z,1.95
2022-09-03T14:29:29.372Z,1.82
2022-09-03T14:32:23.961Z,1.98
2022-09-03T14:35:19.009Z,1.32
2022-09-03T14:38:07.027Z,1.57
2022-09-03T14:40:44.014Z,2.00
2022-09-03T14:43:29.255Z,1.80
2022-09-03T14:46:13.534Z,1.75
2022-09-03T14:48:55.528Z,2.08
2022-09-03T14:51:41.860Z,2.27
2022-09-03T14:54:24.193Z,2.00
2022-09-03T14:59:52.165Z,1.70
2022-09-03T15:02:59.339Z,1.35
2022-09-03T15:05:46.298Z,1.70
2022-09-03T15:08:21.622Z,1.47
2022-09-03T15:10:56.772Z,1.65
2022-09-03T15:13:31.030Z,1.72
2022-09-03T15:16:12.943Z,1.70
2022-09-03T15:18:51.851Z,1.57
2022-09-03T15:21:27.170Z,2.02
2022-09-03T15:24:04.114Z,1.67
2022-09-03T15:26:55.690Z,1.85
2022-09-03T15:29:55.658Z,1.80
2022-09-03T15:32:42.006Z,2.00
2022-09-03T15:35:15.029Z,2.00
2022-09-03T15:37:50.234Z,2.45
2022-09-03T15:40:28.201Z,1.77
2022-09-03T15:43:02.274Z,1.65
2022-09-03T15:45:39.891Z,1.90
2022-09-03T15:48:21.186Z,2.60
2022-09-03T15:50:57.769Z,2.17
2022-09-03T15:53:37.233Z,2.27
2022-09-03T15:56:27.093Z,2.25
2022-09-03T15:59:04.276Z,1.85
2022-09-03T16:01:44.147Z,2.10
2022-09-03T16:04:29.642Z,1.98
2022-09-03T16:07:05.139Z,1.82
2022-09-03T16:09:45.482Z,2.05
2022-09-03T16:15:04.398Z,1.95
2022-09-03T16:17:39.844Z,1.75
2022-09-03T16:20:16.197Z,1.85
2022-09-03T16:22:52.065Z,2.10
2022-09-03T16:25:25.999Z,1.90
2022-09-03T16:28:08.069Z,2.10
2022-09-03T16:30:45.285Z,2.60
2022-09-03T16:33:22.055Z,2.47
2022-09-03T16:35:56.818Z,3.10
2022-09-03T16:38:35.270Z,2.65
2022-09-03T16:41:13.048Z,2.75
2022-09-03T16:46:28.942Z,2.65
2022-09-03T16:49:27.951Z,2.17
2022-09-03T16:52:02.466Z,2.65
2022-09-03T16:54:41.075Z,2.30
2022-09-03T16:57:20.119Z,2.47
2022-09-03T17:00:04.900Z,2.37
2022-09-03T17:03:03.065Z,2.40
2022-09-03T17:05:50.739Z,2.35
2022-09-03T17:08:27.786Z,3.33
2022-09-03T17:11:04.445Z,5.87
2022-09-03T17:14:12.948Z,3.83
2022-09-03T17:16:50.105Z,2.65
2022-09-03T17:19:26.470Z,2.55
2022-09-03T17:22:07.201Z,2.77
2022-09-03T17:24:41.693Z,2.60
2022-09-03T17:27:26.504Z,2.67
2022-09-03T17:30:11.041Z,2.22
2022-09-03T17:32:58.934Z,1.95
2022-09-03T17:35:38.119Z,1.77
2022-09-03T17:38:30.329Z,2.13
2022-09-03T17:41:06.549Z,2.20
2022-09-03T17:43:43.047Z,2.40
2022-09-03T17:46:34.501Z,2.10
2022-09-03T17:49:09.246Z,1.90
2022-09-03T17:51:46.459Z,2.00
2022-09-03T17:54:21.956Z,2.47
2022-09-03T17:56:57.422Z,2.30
2022-09-03T17:59:34.871Z,2.20
2022-09-03T18:02:08.579Z,2.60
2022-09-03T18:04:46.239Z,2.47
2022-09-03T18:07:23.720Z,2.75
2022-09-03T18:10:00.198Z,2.47
2022-09-03T18:12:36.868Z,2.53
2022-09-03T18:15:11.548Z,2.95
2022-09-03T18:17:47.656Z,2.13
2022-09-03T18:20:36.265Z,2.60
2022-09-03T18:23:27.855Z,2.50
2022-09-03T18:26:18.991Z,2.00
2022-09-03T18:29:10.133Z,2.07
2022-09-03T18:31:58.598Z,2.00
2022-09-03T18:34:49.842Z,1.63
2022-09-03T18:37:41.777Z,2.00
2022-09-03T18:40:35.570Z,1.60
2022-09-03T18:43:29.184Z,2.00
2022-09-03T18:49:16.888Z,2.83
2022-09-03T18:52:10.965Z,1.90
2022-09-03T18:55:08.769Z,4.03
2022-09-03T18:58:01.323Z,2.40
2022-09-03T19:00:53.781Z,2.30
2022-09-03T19:03:49.017Z,2.80
2022-09-03T19:06:43.512Z,3.10
2022-09-03T19:09:36.788Z,2.80
2022-09-03T19:12:32.820Z,2.90
2022-09-03T19:15:24.561Z,2.80
2022-09-03T19:18:28.711Z,2.70
2022-09-03T19:21:24.255Z,3.10
2022-09-03T19:24:14.655Z,3.07
2022-09-03T19:27:29.961Z,2.73
2022-09-03T19:30:07.488Z,3.20
2022-09-03T19:32:59.253Z,2.30
2022-09-03T19:35:51.091Z,3.03
2022-09-03T19:38:42.312Z,2.93
2022-09-03T19:41:36.826Z,2.70
2022-09-03T19:44:39.909Z,3.77
2022-09-03T19:47:30.307Z,4.47
2022-09-03T19:50:25.384Z,4.20
2022-09-03T19:53:19.279Z,4.00
2022-09-03T19:56:09.698Z,4.03
2022-09-03T19:59:01.373Z,3.67
2022-09-03T20:01:55.497Z,4.10
2022-09-03T20:04:47.746Z,5.43
2022-09-03T20:07:37.316Z,4.77
2022-09-03T20:10:22.402Z,4.90
2022-09-03T20:12:57.484Z,4.87
2022-09-03T20:15:31.795Z,4.53
2022-09-03T20:18:06.994Z,3.90
2022-09-03T20:20:41.791Z,3.10
2022-09-03T20:23:16.554Z,2.13
2022-09-03T20:26:06.192Z,2.70
2022-09-03T20:28:41.448Z,2.00
2022-09-03T20:31:16.096Z,2.40
2022-09-03T20:33:57.461Z,2.27
2022-09-03T20:36:33.117Z,2.53
2022-09-03T20:39:21.864Z,3.00
2022-09-03T20:41:57.926Z,3.13
2022-09-03T20:44:39.978Z,2.83
2022-09-03T20:47:20.343Z,2.00
2022-09-03T20:49:55.362Z,3.00
2022-09-03T20:52:31.276Z,2.83
2022-09-03T20:55:07.691Z,2.87
2022-09-03T20:57:46.435Z,2.80
2022-09-03T21:00:19.434Z,2.70
2022-09-03T21:03:16.857Z,2.77
2022-09-03T21:05:54.247Z,2.60
2022-09-03T21:08:31.919Z,2.57
2022-09-03T21:11:06.411Z,2.80
2022-09-03T21:13:40.477Z,2.83
2022-09-03T21:16:21.554Z,3.07
2022-09-03T21:18:58.450Z,2.70
2022-09-03T21:21:36.326Z,3.10
2022-09-03T21:24:10.276Z,2.50
2022-09-03T21:26:46.001Z,2.60
2022-09-03T21:29:22.386Z,2.80
2022-09-03T21:31:57.661Z,2.60
2022-09-03T21:34:32.807Z,2.80
2022-09-03T21:37:05.525Z,2.77
2022-09-03T21:42:21.431Z,2.73
2022-09-03T21:44:58.310Z,2.63
2022-09-03T21:47:31.824Z,2.80
2022-09-03T21:52:47.940Z,2.90
2022-09-03T21:55:25.348Z,2.73
2022-09-03T21:58:06.552Z,2.60
2022-09-03T22:00:38.006Z,2.90
2022-09-03T22:03:10.660Z,3.47
2022-09-03T22:05:46.952Z,3.30
2022-09-03T22:08:23.748Z,2.60
2022-09-03T22:11:01.603Z,2.00
2022-09-03T22:13:35.289Z,1.93
2022-09-03T22:16:12.891Z,1.90
2022-09-03T22:18:44.354Z,1.50
2022-09-03T22:21:20.253Z,1.80
2022-09-03T22:24:01.082Z,1.97
2022-09-03T22:30:20.066Z,2.60
2022-09-03T22:32:54.596Z,1.90
2022-09-03T22:35:46.667Z,1.83
2022-09-03T22:38:41.077Z,2.13
2022-09-03T22:41:19.478Z,1.73
2022-09-03T22:43:53.557Z,2.23
2022-09-03T22:46:26.889Z,2.00
2022-09-03T22:49:08.960Z,1.90
2022-09-03T22:51:47.263Z,2.43
2022-09-03T22:54:25.651Z,2.40
2022-09-03T22:56:57.566Z,1.83
2022-09-03T22:59:31.449Z,1.87
2022-09-03T23:02:06.916Z,1.90
2022-09-03T23:04:41.033Z,2.00
2022-09-03T23:07:18.056Z,2.13
2022-09-03T23:09:52.026Z,1.80
2022-09-03T23:12:26.949Z,1.97
2022-09-03T23:15:01.513Z,2.10
2022-09-03T23:22:43.588Z,2.10
2022-09-03T23:25:17.666Z,2.10
2022-09-03T23:27:51.630Z,1.80
2022-09-03T23:30:23.114Z,1.87
2022-09-03T23:32:56.680Z,2.00
2022-09-03T23:35:30.204Z,3.17
2022-09-03T23:38:11.572Z,3.60
2022-09-03T23:40:49.307Z,3.13
2022-09-03T23:43:50.474Z,4.17
2022-09-03T23:46:25.127Z,3.87
2022-09-03T23:52:25.228Z,2.70
2022-09-03T23:55:00.059Z,3.13
2022-09-03T23:57:33.697Z,3.77
